Windstar — WDI3444 — position and weather

sailwx.info

Track history (hours):
 
Tides and Currents Weather Stations Pressure Air Temp Water Temp Dewpoint Dewpoint Depression Visibility Wind Speed Wind Dir Waves Ship Positions

Windstar

Owner: Millard, Stephen, Santa Barbara, CA. More information available from US FCC via Universal Licensing System and Coast Guard Vessel Documentation Center.

Last reported at 2017-Nov-06 23:08 UTC. Time now 2017-Dec-17 17:37 UTC.
Position N 34°24' W 119°41'.
Warning: this ship's position is 40 days out of date.

Length 16 m; draft 2.1 m.

Type: Sailing vessel. MMSI: 367688380.

Date/timePositionNaut miles runAvg speedWind from/ knotsBaromVisibWave heightAir tempDewpointWater temp
2017-Nov-06 23:08N 34°24' W 119°41'0 2.1
2017-Nov-06 22:55N 34°24' W 119°41'2 4.1
2017-Nov-06 22:26N 34°22' W 119°40'2 3.4
2017-Nov-06 21:51N 34°24' W 119°41'  
2017-Oct-29 21:10N 34°24' W 119°41'1 4.6
2017-Oct-29 20:55N 34°23' W 119°42'3 6.7
2017-Oct-29 20:28N 34°20' W 119°42'4 6.8
2017-Oct-29 19:52N 34°16' W 119°42'3 6.9
2017-Oct-29 19:29N 34°14' W 119°42'4 7.1
2017-Oct-29 18:58N 34°10' W 119°42'3 6.9
2017-Oct-29 18:29N 34°07' W 119°42'3 6.6
2017-Oct-29 18:00N 34°03' W 119°42'1 0.5
2017-Oct-29 15:06N 34°02' W 119°42'0 0.0
2017-Oct-29 14:57N 34°02' W 119°42'0 0.0
2017-Oct-29 14:30N 34°02' W 119°42'0 0.0
2017-Oct-29 14:00N 34°02' W 119°42'0 0.0
2017-Oct-29 11:30N 34°02' W 119°42'0 0.0
2017-Oct-29 09:57N 34°02' W 119°42'0 0.1
2017-Oct-29 09:09N 34°02' W 119°42'0 0.2
2017-Oct-29 08:57N 34°02' W 119°42'0 0.1
2017-Oct-29 08:24N 34°02' W 119°42'0 0.1
2017-Oct-29 07:36N 34°02' W 119°42'0 0.0
2017-Oct-29 06:18N 34°02' W 119°42'0 0.1
2017-Oct-29 05:57N 34°02' W 119°42'0 0.0
2017-Oct-29 05:21N 34°02' W 119°42'0 0.0
2017-Oct-29 04:45N 34°02' W 119°42'0 0.0
2017-Oct-29 04:27N 34°02' W 119°42'0 0.0
2017-Oct-29 03:42N 34°02' W 119°42'  
Track history (hours):
 
Tides and Currents Weather Stations Pressure Air Temp Water Temp Dewpoint Dewpoint Depression Visibility Wind Speed Wind Dir Waves Ship Positions

Windstar

Owner: Millard, Stephen, Santa Barbara, CA. More information available from US FCC via Universal Licensing System and Coast Guard Vessel Documentation Center.

Last reported at 2017-Nov-06 23:08 UTC. Time now 2017-Dec-17 17:37 UTC.
Position N 34°24' W 119°41'.
Warning: this ship's position is 40 days out of date.

Length 16 m; draft 2.1 m.

Type: Sailing vessel. MMSI: 367688380.

Date/timePositionNaut miles runAvg speedWind from/ knotsBaromVisibWave heightAir tempDewpointWater temp
2017-Nov-06 23:08N 34°24' W 119°41'0 2.1
2017-Nov-06 22:55N 34°24' W 119°41'2 4.1
2017-Nov-06 22:26N 34°22' W 119°40'2 3.4
2017-Nov-06 21:51N 34°24' W 119°41'  
2017-Oct-29 21:10N 34°24' W 119°41'1 4.6
2017-Oct-29 20:55N 34°23' W 119°42'3 6.7
2017-Oct-29 20:28N 34°20' W 119°42'4 6.8
2017-Oct-29 19:52N 34°16' W 119°42'3 6.9
2017-Oct-29 19:29N 34°14' W 119°42'4 7.1
2017-Oct-29 18:58N 34°10' W 119°42'3 6.9
2017-Oct-29 18:29N 34°07' W 119°42'3 6.6
2017-Oct-29 18:00N 34°03' W 119°42'1 0.5
2017-Oct-29 15:06N 34°02' W 119°42'0 0.0
2017-Oct-29 14:57N 34°02' W 119°42'0 0.0
2017-Oct-29 14:30N 34°02' W 119°42'0 0.0
2017-Oct-29 14:00N 34°02' W 119°42'0 0.0
2017-Oct-29 11:30N 34°02' W 119°42'0 0.0
2017-Oct-29 09:57N 34°02' W 119°42'0 0.1
2017-Oct-29 09:09N 34°02' W 119°42'0 0.2
2017-Oct-29 08:57N 34°02' W 119°42'0 0.1
2017-Oct-29 08:24N 34°02' W 119°42'0 0.1
2017-Oct-29 07:36N 34°02' W 119°42'0 0.0
2017-Oct-29 06:18N 34°02' W 119°42'0 0.1
2017-Oct-29 05:57N 34°02' W 119°42'0 0.0
2017-Oct-29 05:21N 34°02' W 119°42'0 0.0
2017-Oct-29 04:45N 34°02' W 119°42'0 0.0
2017-Oct-29 04:27N 34°02' W 119°42'0 0.0
2017-Oct-29 03:42N 34°02' W 119°42'  

Dump ship's entire track history